Time;durP1;ratioP1;P1;durP2;ratioP2;P2;SDS_P1;SDS_P2;PMS_P1;PMS_P2;Temp;Humidity;BMP_temperature;BMP_pressure;BME280_temperature;BME280_humidity;BME280_pressure;Samples;Min_cycle;Max_cycle;Signal;HPM_P1;HPM_P2
2022/04/15 00:01:20;;;;;;;26.77;11.95;;;7.50;99.90;;;;;;4974123;28;20038;-73
2022/04/15 00:03:46;;;;;;;21.48;12.85;;;7.40;99.90;;;;;;4948243;28;20065;-72
2022/04/15 00:06:12;;;;;;;23.23;12.27;;;7.30;99.90;;;;;;4977811;28;20455;-74
2022/04/15 00:08:38;;;;;;;22.63;11.90;;;7.30;99.90;;;;;;4980830;28;20046;-73
2022/04/15 00:11:04;;;;;;;15.68;10.18;;;7.30;99.90;;;;;;4980748;28;20161;-74
2022/04/15 00:13:32;;;;;;;15.73;9.85;;;7.30;99.90;;;;;;4975578;28;20156;-73
2022/04/15 00:15:59;;;;;;;20.25;14.00;;;7.30;99.90;;;;;;4974432;28;20366;-74
2022/04/15 00:18:25;;;;;;;20.35;13.60;;;7.30;99.90;;;;;;4981430;28;20045;-73
2022/04/15 00:20:52;;;;;;;17.25;11.07;;;7.30;99.90;;;;;;4982980;28;20065;-73
2022/04/15 00:23:22;;;;;;;15.20;11.52;;;7.30;99.90;;;;;;4977561;28;20053;-74
2022/04/15 00:25:52;;;;;;;17.00;10.68;;;7.20;99.90;;;;;;4979111;28;20137;-74
2022/04/15 00:28:18;;;;;;;18.90;11.80;;;7.10;99.90;;;;;;4983185;28;20136;-73
2022/04/15 00:30:44;;;;;;;24.48;13.15;;;7.10;99.90;;;;;;4981165;28;20053;-74
2022/04/15 00:33:10;;;;;;;26.90;11.77;;;7.10;99.90;;;;;;4983115;28;20065;-74
2022/04/15 00:35:37;;;;;;;15.77;10.57;;;7.00;99.90;;;;;;4974773;28;20572;-74
2022/04/15 00:38:03;;;;;;;18.95;9.98;;;6.80;99.90;;;;;;4992474;28;20064;-74
2022/04/15 00:40:29;;;;;;;15.00;9.60;;;6.80;99.90;;;;;;4983409;28;20115;-74
2022/04/15 00:42:55;;;;;;;17.67;10.02;;;6.90;99.90;;;;;;4996441;28;20496;-74
2022/04/15 00:45:20;;;;;;;17.75;10.63;;;6.80;99.90;;;;;;4994633;28;20055;-73
2022/04/15 00:47:52;;;;;;;18.27;12.73;;;6.70;99.90;;;;;;4997308;28;21078;-73
2022/04/15 00:50:20;;;;;;;27.38;16.27;;;6.70;99.90;;;;;;4999803;28;20086;-73
2022/04/15 00:52:49;;;;;;;22.80;14.88;;;6.80;99.90;;;;;;4996792;28;20093;-74
2022/04/15 00:55:16;;;;;;;21.08;15.20;;;6.70;99.90;;;;;;4967014;28;20091;-73
2022/04/15 00:57:44;;;;;;;20.73;13.07;;;6.70;99.90;;;;;;4996997;28;20067;-73
2022/04/15 01:00:12;;;;;;;14.43;9.43;;;6.50;99.90;;;;;;4998034;28;20111;-73
2022/04/15 01:02:39;;;;;;;61.30;11.77;;;6.30;99.90;;;;;;4980781;28;20064;-73
2022/04/15 01:05:07;;;;;;;16.15;9.32;;;6.20;99.90;;;;;;4981218;28;20128;-73
2022/04/15 01:07:36;;;;;;;11.23;8.43;;;6.20;99.90;;;;;;4990539;28;20037;-73
2022/04/15 01:10:06;;;;;;;15.35;9.18;;;6.20;99.90;;;;;;4991252;28;20041;-73
2022/04/15 01:12:36;;;;;;;16.15;12.15;;;6.20;99.90;;;;;;4967299;28;20057;-73
2022/04/15 01:15:06;;;;;;;13.15;9.77;;;6.30;99.90;;;;;;4993128;28;20213;-74
2022/04/15 01:17:35;;;;;;;12.93;9.38;;;6.30;99.90;;;;;;4991504;28;20059;-73
2022/04/15 01:20:10;;;;;;;24.63;14.30;;;6.10;99.90;;;;;;4992293;28;20738;-74
2022/04/15 01:22:44;;;;;;;15.23;10.70;;;6.10;99.90;;;;;;4997551;28;20068;-73
2022/04/15 01:25:13;;;;;;;16.55;11.65;;;6.20;99.90;;;;;;4988239;28;20045;-73
2022/04/15 01:27:41;;;;;;;16.73;10.60;;;6.20;99.90;;;;;;4987851;28;20597;-74
2022/04/15 01:30:15;;;;;;;18.38;12.63;;;6.20;99.90;;;;;;4993428;28;20045;-73
2022/04/15 01:32:41;;;;;;;16.38;12.13;;;6.20;99.90;;;;;;4989353;28;20057;-74
2022/04/15 01:35:08;;;;;;;18.27;12.75;;;6.10;99.90;;;;;;4984555;28;20058;-73
2022/04/15 01:37:35;;;;;;;18.45;12.68;;;6.20;99.90;;;;;;4971754;28;20045;-73
2022/04/15 01:40:03;;;;;;;18.80;11.73;;;6.30;99.90;;;;;;4989124;28;20805;-73
2022/04/15 01:42:29;;;;;;;20.50;13.82;;;6.30;99.90;;;;;;5000761;28;20046;-73
2022/04/15 01:44:55;;;;;;;18.55;14.32;;;6.30;99.90;;;;;;4985549;28;20440;-74
2022/04/15 01:47:20;;;;;;;20.80;16.33;;;6.50;99.90;;;;;;4982456;28;20058;-73
2022/04/15 01:49:46;;;;;;;21.55;15.07;;;6.60;99.90;;;;;;4985707;28;20054;-73
2022/04/15 01:52:12;;;;;;;23.55;15.88;;;6.70;99.90;;;;;;4982090;28;20046;-73
2022/04/15 01:54:38;;;;;;;19.45;15.38;;;6.80;99.90;;;;;;4987341;28;20607;-73
2022/04/15 01:57:04;;;;;;;23.48;14.35;;;6.80;99.90;;;;;;4987771;28;20524;-73
2022/04/15 01:59:30;;;;;;;23.33;15.35;;;6.90;99.90;;;;;;4986892;28;20052;-73
2022/04/15 02:01:56;;;;;;;21.15;15.32;;;6.90;99.90;;;;;;4982025;28;20049;-73
2022/04/15 02:04:26;;;;;;;21.67;15.48;;;6.90;99.90;;;;;;4986649;28;20049;-73
2022/04/15 02:06:53;;;;;;;21.10;15.02;;;7.00;99.90;;;;;;4990836;28;20048;-73
2022/04/15 02:09:19;;;;;;;20.27;16.45;;;7.00;99.90;;;;;;4986948;28;20045;-73
2022/04/15 02:11:45;;;;;;;20.05;15.63;;;7.10;99.90;;;;;;4990219;28;20046;-73
2022/04/15 02:14:16;;;;;;;25.88;15.55;;;7.10;99.90;;;;;;4987035;28;20037;-73
2022/04/15 02:16:43;;;;;;;19.83;14.68;;;7.10;99.90;;;;;;4987157;28;20149;-73
2022/04/15 02:19:09;;;;;;;19.80;14.98;;;7.20;99.90;;;;;;4987737;28;20045;-73
2022/04/15 02:21:34;;;;;;;20.10;15.23;;;7.20;99.90;;;;;;4988945;28;20116;-73
2022/04/15 02:24:00;;;;;;;21.20;14.40;;;7.20;99.90;;;;;;4988530;28;20053;-73
2022/04/15 02:26:26;;;;;;;20.92;14.38;;;7.20;99.90;;;;;;4993089;28;20427;-73
2022/04/15 02:28:52;;;;;;;21.88;15.32;;;7.20;99.90;;;;;;4987496;28;20042;-73
2022/04/15 02:31:18;;;;;;;21.00;13.85;;;7.30;99.90;;;;;;4992593;28;20386;-73
2022/04/15 02:33:44;;;;;;;20.35;12.98;;;7.30;99.90;;;;;;4973424;28;20141;-73
2022/04/15 02:36:10;;;;;;;17.33;13.75;;;7.30;99.90;;;;;;4992108;28;20057;-73
2022/04/15 02:38:36;;;;;;;20.20;13.00;;;7.30;99.90;;;;;;4991067;28;20505;-73
2022/04/15 02:41:04;;;;;;;22.58;12.32;;;7.30;99.90;;;;;;4990492;28;20057;-73
2022/04/15 02:43:33;;;;;;;18.92;13.02;;;7.30;99.90;;;;;;4985612;28;20554;-73
2022/04/15 02:46:00;;;;;;;19.63;12.52;;;7.40;99.90;;;;;;4988253;28;20088;-73
2022/04/15 02:48:26;;;;;;;18.13;13.45;;;7.30;99.90;;;;;;4986202;28;20061;-73
2022/04/15 02:50:53;;;;;;;17.77;13.52;;;7.40;99.90;;;;;;4984092;28;20043;-73
2022/04/15 02:53:19;;;;;;;16.42;11.82;;;7.40;99.90;;;;;;4989877;28;20432;-73
2022/04/15 02:55:45;;;;;;;20.38;13.00;;;7.40;99.90;;;;;;4985771;28;20137;-73
2022/04/15 02:58:11;;;;;;;18.17;12.32;;;7.40;99.90;;;;;;4990665;28;20053;-73
2022/04/15 03:00:37;;;;;;;19.95;13.18;;;7.40;99.90;;;;;;4992797;28;20049;-74
2022/04/15 03:03:03;;;;;;;18.70;12.70;;;7.40;99.90;;;;;;4987742;28;20054;-74
2022/04/15 03:05:30;;;;;;;17.00;12.05;;;7.50;99.90;;;;;;4985121;28;20084;-74
2022/04/15 03:07:56;;;;;;;16.02;12.82;;;7.50;99.90;;;;;;4987757;28;20053;-73
2022/04/15 03:10:22;;;;;;;16.65;12.98;;;7.50;99.90;;;;;;4980019;28;20049;-74
2022/04/15 03:12:48;;;;;;;17.63;12.10;;;7.50;99.90;;;;;;4991414;28;20119;-73
2022/04/15 03:15:14;;;;;;;17.77;12.30;;;7.50;99.90;;;;;;4985740;28;20053;-73
2022/04/15 03:17:40;;;;;;;16.90;13.15;;;7.60;99.90;;;;;;4982954;28;20125;-74
2022/04/15 03:20:07;;;;;;;18.20;12.60;;;7.60;99.90;;;;;;4987449;28;20077;-74
2022/04/15 03:22:41;;;;;;;16.23;12.20;;;7.60;99.90;;;;;;4988479;28;20054;-73
2022/04/15 03:25:08;;;;;;;;;;;7.60;99.90;;;;;;4999759;28;20542;-74
2022/04/15 03:27:34;;;;;;;19.00;12.45;;;7.60;99.90;;;;;;4986058;28;19925;-74
2022/04/15 03:30:00;;;;;;;18.95;12.15;;;7.60;99.90;;;;;;4988091;28;20050;-74
2022/04/15 03:32:26;;;;;;;17.73;13.18;;;7.60;99.90;;;;;;4990100;28;20053;-73
2022/04/15 03:34:53;;;;;;;18.90;13.13;;;7.60;99.90;;;;;;5004321;28;20115;-73
2022/04/15 03:37:19;;;;;;;16.92;12.40;;;7.60;99.90;;;;;;4986196;28;20045;-73
2022/04/15 03:39:45;;;;;;;16.63;12.35;;;7.70;99.90;;;;;;4981626;28;20058;-74
2022/04/15 03:42:10;;;;;;;19.88;13.18;;;7.70;99.90;;;;;;4985270;28;20053;-73
2022/04/15 03:44:36;;;;;;;18.25;12.43;;;7.70;99.90;;;;;;5003967;28;20727;-73
2022/04/15 03:47:07;;;;;;;18.67;12.57;;;7.70;99.90;;;;;;4986803;28;20105;-73
2022/04/15 03:49:33;;;;;;;19.13;12.88;;;7.70;99.90;;;;;;5003360;28;20147;-73
2022/04/15 03:51:59;;;;;;;22.73;12.95;;;7.70;99.90;;;;;;4990513;28;20703;-73
2022/04/15 03:54:25;;;;;;;19.02;12.95;;;7.80;99.90;;;;;;4987654;28;20112;-73
2022/04/15 03:56:51;;;;;;;19.17;13.48;;;7.80;99.90;;;;;;4985731;28;20076;-73
2022/04/15 03:59:18;;;;;;;16.92;12.50;;;7.70;99.90;;;;;;4987062;28;21017;-73
2022/04/15 04:01:44;;;;;;;20.55;12.77;;;7.80;99.90;;;;;;4989435;28;20048;-74
2022/04/15 04:04:10;;;;;;;16.88;12.13;;;7.80;99.90;;;;;;4987101;28;20409;-74
2022/04/15 04:06:36;;;;;;;17.10;11.68;;;7.80;99.90;;;;;;4986839;28;20049;-73
2022/04/15 04:09:02;;;;;;;19.65;12.10;;;7.80;99.90;;;;;;4983529;28;20058;-73
2022/04/15 04:11:28;;;;;;;19.05;11.88;;;7.80;99.90;;;;;;4988506;28;20511;-73
2022/04/15 04:13:54;;;;;;;16.48;12.20;;;7.80;99.90;;;;;;4987017;28;20104;-73
2022/04/15 04:16:20;;;;;;;21.92;12.38;;;7.90;99.90;;;;;;4982755;28;20061;-74
2022/04/15 04:18:46;;;;;;;20.83;13.32;;;7.90;99.90;;;;;;4980465;28;20056;-73
2022/04/15 04:21:13;;;;;;;19.50;12.10;;;7.90;99.90;;;;;;4971123;28;20576;-73
2022/04/15 04:23:39;;;;;;;18.15;11.70;;;7.90;99.90;;;;;;4973821;28;20041;-73
2022/04/15 04:26:05;;;;;;;18.92;11.50;;;7.90;99.90;;;;;;4970527;28;20075;-74
2022/04/15 04:28:32;;;;;;;23.15;13.25;;;7.90;99.90;;;;;;4973824;28;20613;-74
2022/04/15 04:30:57;;;;;;;20.40;12.27;;;7.90;99.90;;;;;;4968133;28;20062;-74
2022/04/15 04:33:24;;;;;;;18.45;11.88;;;7.90;99.90;;;;;;4974300;28;20123;-73
2022/04/15 04:35:51;;;;;;;17.70;11.75;;;7.90;99.90;;;;;;4989986;28;20144;-73
2022/04/15 04:38:17;;;;;;;21.40;13.02;;;7.90;99.90;;;;;;4986554;28;20053;-73
2022/04/15 04:40:45;;;;;;;17.45;10.82;;;8.00;99.90;;;;;;4970000;28;20500;-74
2022/04/15 04:43:11;;;;;;;17.98;11.07;;;8.00;99.90;;;;;;4988524;28;20760;-73
2022/04/15 04:45:38;;;;;;;18.40;11.30;;;8.00;99.90;;;;;;4991064;28;20820;-73
2022/04/15 04:48:05;;;;;;;17.77;10.95;;;8.00;99.90;;;;;;4980652;28;20057;-73
2022/04/15 04:50:32;;;;;;;20.77;11.00;;;8.10;99.90;;;;;;4992481;28;20052;-73
2022/04/15 04:52:58;;;;;;;16.90;11.40;;;8.10;99.90;;;;;;4999681;28;20045;-72
2022/04/15 04:55:24;;;;;;;17.38;12.25;;;8.10;99.90;;;;;;4994309;28;20522;-73
2022/04/15 04:57:50;;;;;;;27.70;11.98;;;8.10;99.90;;;;;;4985494;28;20049;-73
2022/04/15 05:00:18;;;;;;;16.52;11.38;;;8.10;99.90;;;;;;5002891;28;20389;-73
2022/04/15 05:02:44;;;;;;;17.08;11.38;;;8.10;99.90;;;;;;4985872;28;20127;-74
2022/04/15 05:05:11;;;;;;;17.77;10.90;;;8.10;99.90;;;;;;5005301;28;20038;-73
2022/04/15 05:07:37;;;;;;;15.25;10.75;;;8.10;99.90;;;;;;5006821;28;20103;-73
2022/04/15 05:10:04;;;;;;;17.98;11.82;;;8.10;99.90;;;;;;5009148;28;20045;-73
2022/04/15 05:12:30;;;;;;;17.23;10.55;;;8.10;99.90;;;;;;5006794;28;20106;-73
2022/04/15 05:14:56;;;;;;;17.55;11.50;;;8.20;99.90;;;;;;5011983;28;20819;-73
2022/04/15 05:17:22;;;;;;;18.00;10.63;;;8.20;99.90;;;;;;5010752;28;20037;-73
2022/04/15 05:19:48;;;;;;;18.50;10.98;;;8.20;99.90;;;;;;5008506;28;20115;-73
2022/04/15 05:22:14;;;;;;;16.05;10.77;;;8.20;99.90;;;;;;4976579;28;20041;-73
2022/04/15 05:24:41;;;;;;;16.15;11.23;;;8.20;99.90;;;;;;4987260;28;20052;-74
2022/04/15 05:27:06;;;;;;;15.30;10.50;;;8.20;99.90;;;;;;4993766;28;20053;-74
2022/04/15 05:29:33;;;;;;;23.70;11.60;;;8.30;99.90;;;;;;5007605;28;20053;-73
2022/04/15 05:31:59;;;;;;;18.00;11.32;;;8.30;99.90;;;;;;5004982;28;20237;-74
2022/04/15 05:34:25;;;;;;;16.02;11.15;;;8.30;99.90;;;;;;5009375;28;20057;-73
2022/04/15 05:36:51;;;;;;;17.17;10.75;;;8.30;99.90;;;;;;4991235;28;20049;-73
2022/04/15 05:39:17;;;;;;;19.10;11.23;;;8.30;99.90;;;;;;5007770;28;20045;-73
2022/04/15 05:41:43;;;;;;;26.23;11.38;;;8.30;99.90;;;;;;5007858;28;20048;-73
2022/04/15 05:44:12;;;;;;;29.25;12.10;;;8.40;99.90;;;;;;5008046;28;20048;-74
2022/04/15 05:46:38;;;;;;;16.70;11.63;;;8.40;99.90;;;;;;5005672;28;20049;-73
2022/04/15 05:49:08;;;;;;;24.35;12.05;;;8.40;99.90;;;;;;5006789;28;20192;-73
2022/04/15 05:51:34;;;;;;;23.65;12.55;;;8.40;99.90;;;;;;5007135;28;20041;-73
2022/04/15 05:54:00;;;;;;;18.33;11.98;;;8.40;99.90;;;;;;5005808;28;20045;-73
2022/04/15 05:56:26;;;;;;;19.15;12.10;;;8.40;99.90;;;;;;4989852;28;20107;-74
2022/04/15 05:58:51;;;;;;;22.88;12.85;;;8.40;99.90;;;;;;4973643;28;20698;-73
2022/04/15 06:01:17;;;;;;;17.88;12.40;;;8.40;99.90;;;;;;5005689;28;20512;-74
2022/04/15 06:03:43;;;;;;;19.40;12.90;;;8.50;99.90;;;;;;4989765;28;20099;-73
2022/04/15 06:06:09;;;;;;;17.65;13.27;;;8.50;99.90;;;;;;5006558;28;20102;-73
2022/04/15 06:08:35;;;;;;;15.98;12.07;;;8.40;99.90;;;;;;5007907;28;20049;-73
2022/04/15 06:11:01;;;;;;;16.65;12.73;;;8.50;99.90;;;;;;5003723;28;20042;-73
2022/04/15 06:13:26;;;;;;;16.95;12.45;;;8.40;99.90;;;;;;4990229;28;20165;-73
2022/04/15 06:15:55;;;;;;;16.08;12.02;;;8.40;99.90;;;;;;5008574;28;21137;-73
2022/04/15 06:18:22;;;;;;;15.63;13.15;;;8.40;99.90;;;;;;5006873;28;20045;-74
2022/04/15 06:20:48;;;;;;;14.35;11.43;;;8.40;99.90;;;;;;5005460;28;20044;-73
2022/04/15 06:23:15;;;;;;;14.27;11.43;;;8.50;99.90;;;;;;5004024;28;20120;-73
2022/04/15 06:25:41;;;;;;;15.07;11.38;;;8.50;99.90;;;;;;5005697;28;20096;-73
2022/04/15 06:28:08;;;;;;;15.77;11.63;;;8.50;99.90;;;;;;5008706;28;20045;-73
2022/04/15 06:30:34;;;;;;;18.17;10.60;;;8.50;99.90;;;;;;5008631;28;20135;-73
2022/04/15 06:33:00;;;;;;;17.17;10.80;;;8.60;99.90;;;;;;4992681;28;20044;-73
2022/04/15 06:35:27;;;;;;;13.18;10.95;;;8.70;99.90;;;;;;4989906;28;20049;-73
2022/04/15 06:37:52;;;;;;;17.08;10.35;;;8.70;99.90;;;;;;5005581;28;20056;-73
2022/04/15 06:40:18;;;;;;;28.00;10.90;;;8.70;99.90;;;;;;5000564;28;20276;-73
2022/04/15 06:42:44;;;;;;;12.88;8.77;;;8.80;99.90;;;;;;4996618;28;20045;-74
2022/04/15 06:45:13;;;;;;;11.70;7.38;;;8.70;99.90;;;;;;5005350;28;20550;-73
2022/04/15 06:47:39;;;;;;;16.33;8.18;;;8.90;99.90;;;;;;4980043;28;20049;-73
2022/04/15 06:50:06;;;;;;;12.02;7.95;;;8.90;99.90;;;;;;4981793;28;20102;-73
2022/04/15 06:52:32;;;;;;;10.90;6.70;;;9.10;99.90;;;;;;5000412;28;20052;-72
2022/04/15 06:54:57;;;;;;;10.45;6.82;;;8.90;99.90;;;;;;5000865;28;20088;-72
2022/04/15 06:57:23;;;;;;;9.82;6.68;;;9.00;99.90;;;;;;4981910;28;20044;-73
2022/04/15 06:59:49;;;;;;;11.95;6.70;;;9.00;99.90;;;;;;5009672;28;20087;-73
2022/04/15 07:02:15;;;;;;;9.45;6.47;;;9.00;99.90;;;;;;5005936;28;20038;-73
2022/04/15 07:04:41;;;;;;;6.35;3.80;;;9.00;99.90;;;;;;5011637;28;20052;-73
2022/04/15 07:07:22;;;;;;;6.82;4.43;;;8.90;99.90;;;;;;5000554;28;20037;-73
2022/04/15 07:09:51;;;;;;;9.07;5.38;;;9.00;99.90;;;;;;4991360;28;20138;-73
2022/04/15 07:12:17;;;;;;;9.35;5.55;;;8.90;99.90;;;;;;5006806;28;20046;-73
2022/04/15 07:14:43;;;;;;;7.80;5.90;;;9.00;99.90;;;;;;4990632;28;20136;-73
2022/04/15 07:17:09;;;;;;;9.02;5.90;;;8.90;99.90;;;;;;5002691;28;20338;-72
2022/04/15 07:19:36;;;;;;;9.05;5.53;;;8.90;99.90;;;;;;5007195;28;21215;-73
2022/04/15 07:22:05;;;;;;;9.38;6.07;;;8.60;99.90;;;;;;5007229;28;20542;-73
2022/04/15 07:24:34;;;;;;;7.97;5.85;;;8.70;99.90;;;;;;5007257;28;20052;-73
2022/04/15 07:27:00;;;;;;;8.88;6.40;;;8.80;99.90;;;;;;5003811;28;20069;-73
2022/04/15 07:29:26;;;;;;;9.77;6.68;;;8.80;99.90;;;;;;5006562;28;20045;-73
2022/04/15 07:31:53;;;;;;;10.10;6.97;;;8.80;99.90;;;;;;5005541;28;20050;-73
2022/04/15 07:34:20;;;;;;;10.35;7.13;;;8.90;99.90;;;;;;5004930;28;20064;-73
2022/04/15 07:36:53;;;;;;;13.43;7.28;;;8.70;99.90;;;;;;5008217;28;20061;-73
2022/04/15 07:39:20;;;;;;;11.90;7.20;;;8.80;99.90;;;;;;5009435;28;20048;-73
2022/04/15 07:41:46;;;;;;;9.57;7.15;;;8.90;99.90;;;;;;5008757;28;20504;-73
2022/04/15 07:44:13;;;;;;;61.53;10.85;;;8.90;99.90;;;;;;5008178;28;20049;-73
2022/04/15 07:46:40;;;;;;;9.32;7.53;;;8.80;99.90;;;;;;5003583;28;20049;-73
2022/04/15 07:49:06;;;;;;;11.60;7.40;;;8.90;99.90;;;;;;5002139;28;20045;-73
2022/04/15 07:51:33;;;;;;;20.08;9.13;;;8.80;99.90;;;;;;4986060;28;20119;-73
2022/04/15 07:53:59;;;;;;;25.58;8.43;;;8.80;99.90;;;;;;4995135;28;20044;-73
2022/04/15 07:56:25;;;;;;;19.98;8.77;;;8.90;99.90;;;;;;5009622;28;20053;-73
2022/04/15 07:58:51;;;;;;;11.95;8.82;;;8.90;99.90;;;;;;5007491;28;20084;-73
2022/04/15 08:01:18;;;;;;;16.33;8.93;;;8.80;99.90;;;;;;4994564;28;20228;-73
2022/04/15 08:03:45;;;;;;;11.98;9.00;;;8.90;99.90;;;;;;5005568;28;20054;-74
2022/04/15 08:06:11;;;;;;;13.00;8.75;;;8.80;99.90;;;;;;4983624;28;20299;-73
2022/04/15 08:08:37;;;;;;;12.88;9.38;;;8.80;99.90;;;;;;4984389;28;20071;-73
2022/04/15 08:11:03;;;;;;;12.70;9.70;;;8.80;99.90;;;;;;5006432;28;20056;-73
2022/04/15 08:13:29;;;;;;;14.15;9.50;;;8.80;99.90;;;;;;4990802;28;20467;-73
2022/04/15 08:15:56;;;;;;;13.82;9.50;;;8.90;99.90;;;;;;4990996;28;20160;-74
2022/04/15 08:18:23;;;;;;;12.52;9.32;;;9.00;99.90;;;;;;4994471;28;20535;-73
2022/04/15 08:20:55;;;;;;;15.70;10.82;;;9.00;99.90;;;;;;5005449;28;20842;-73
2022/04/15 08:23:21;;;;;;;14.23;9.73;;;9.10;99.90;;;;;;4992596;28;20081;-74
2022/04/15 08:25:47;;;;;;;15.25;10.90;;;9.10;99.90;;;;;;4989235;28;20052;-74
2022/04/15 08:28:13;;;;;;;14.60;10.95;;;9.20;99.90;;;;;;5007472;28;20086;-73
2022/04/15 08:30:39;;;;;;;22.02;11.15;;;9.20;99.90;;;;;;4987272;28;20094;-73
2022/04/15 08:33:07;;;;;;;16.50;11.93;;;9.20;99.90;;;;;;4988918;28;20967;-73
2022/04/15 08:35:34;;;;;;;16.10;11.27;;;9.40;99.90;;;;;;4992792;28;20083;-73
2022/04/15 08:38:01;;;;;;;16.17;11.55;;;9.20;99.90;;;;;;5005793;28;20068;-73
2022/04/15 08:40:31;;;;;;;16.25;11.63;;;9.30;99.90;;;;;;5013722;28;20492;-73
2022/04/15 08:42:58;;;;;;;16.60;11.80;;;9.30;99.90;;;;;;4990940;28;20065;-73
2022/04/15 08:45:27;;;;;;;17.17;12.70;;;9.30;99.90;;;;;;5005959;28;20055;-73
2022/04/15 08:47:59;;;;;;;16.90;12.07;;;9.30;99.90;;;;;;5009114;28;20075;-73
2022/04/15 08:50:27;;;;;;;15.95;11.65;;;9.30;99.90;;;;;;5007276;28;20109;-73
2022/04/15 08:52:54;;;;;;;14.48;11.57;;;9.10;99.90;;;;;;5009304;28;20099;-73
2022/04/15 08:55:21;;;;;;;17.17;12.05;;;9.30;99.90;;;;;;4991042;28;20421;-73
2022/04/15 08:57:51;;;;;;;17.17;12.38;;;9.40;99.90;;;;;;5008708;28;20132;-73
2022/04/15 09:00:19;;;;;;;17.40;11.75;;;9.50;99.90;;;;;;5007393;28;20407;-74
2022/04/15 09:02:45;;;;;;;16.83;12.57;;;9.60;99.90;;;;;;4985960;28;20511;-73
2022/04/15 09:05:29;;;;;;;18.65;12.02;;;9.70;99.90;;;;;;5006526;28;20076;-73
2022/04/15 09:08:11;;;;;;;17.33;12.10;;;9.60;99.90;;;;;;4988523;28;20054;-73
2022/04/15 09:10:42;;;;;;;18.45;12.32;;;9.70;99.90;;;;;;5004696;28;20095;-73
2022/04/15 09:13:20;;;;;;;17.27;12.82;;;9.80;99.90;;;;;;4985359;28;20139;-74
2022/04/15 09:15:46;;;;;;;18.88;12.63;;;9.80;99.90;;;;;;5007126;28;20040;-73
2022/04/15 09:18:30;;;;;;;20.48;13.25;;;9.60;99.90;;;;;;5008063;28;20527;-73
2022/04/15 09:21:24;;;;;;;16.92;12.43;;;9.90;99.90;;;;;;5005699;28;20117;-74
2022/04/15 09:23:55;;;;;;;17.98;12.68;;;9.80;99.90;;;;;;5002910;28;20572;-74
2022/04/15 09:26:22;;;;;;;20.58;12.48;;;9.80;99.90;;;;;;5006197;28;20045;-74
2022/04/15 09:28:49;;;;;;;18.92;12.82;;;10.00;99.90;;;;;;4983305;28;20049;-73
2022/04/15 09:31:17;;;;;;;18.48;12.75;;;9.90;99.90;;;;;;5002863;28;20041;-74
2022/04/15 09:33:54;;;;;;;17.60;12.75;;;9.90;99.90;;;;;;4988179;28;20041;-73
2022/04/15 09:36:27;;;;;;;19.65;13.30;;;10.10;99.90;;;;;;5005279;28;20088;-73
2022/04/15 09:38:58;;;;;;;20.15;13.55;;;10.10;99.90;;;;;;5002818;28;20045;-73
2022/04/15 09:41:26;;;;;;;20.40;13.23;;;10.10;99.90;;;;;;5008007;28;20044;-73
2022/04/15 09:43:54;;;;;;;21.52;13.82;;;10.30;99.90;;;;;;5001548;28;20088;-73
2022/04/15 09:46:21;;;;;;;18.60;12.98;;;10.30;99.90;;;;;;5008215;28;20068;-73
2022/04/15 09:49:07;;;;;;;18.67;12.02;;;10.40;99.90;;;;;;4984892;28;20080;-73
2022/04/15 09:51:44;;;;;;;17.75;11.90;;;10.60;99.90;;;;;;4980874;28;20075;-73
2022/04/15 09:54:19;;;;;;;15.25;11.40;;;10.70;99.90;;;;;;5002876;28;20148;-73
2022/04/15 09:56:47;;;;;;;17.02;12.15;;;10.30;99.90;;;;;;4985421;28;20053;-73
2022/04/15 09:59:15;;;;;;;14.60;10.45;;;10.90;99.90;;;;;;5003138;28;20110;-73
2022/04/15 10:01:45;;;;;;;15.02;10.45;;;10.70;99.90;;;;;;4993798;28;20056;-74
2022/04/15 10:04:13;;;;;;;15.35;10.23;;;10.50;99.90;;;;;;4985748;28;20119;-74
2022/04/15 10:06:42;;;;;;;16.27;10.23;;;10.80;99.90;;;;;;4990907;28;20053;-73
2022/04/15 10:09:12;;;;;;;17.33;11.00;;;11.10;99.90;;;;;;4989926;28;20057;-74
2022/04/15 10:11:41;;;;;;;15.77;10.43;;;11.10;99.90;;;;;;4992336;28;20049;-73
2022/04/15 10:14:09;;;;;;;20.25;10.60;;;11.00;99.90;;;;;;5006159;28;20135;-73
2022/04/15 10:16:36;;;;;;;14.20;9.57;;;11.00;99.90;;;;;;5002803;28;20052;-73
2022/04/15 10:19:02;;;;;;;15.15;9.20;;;10.80;99.90;;;;;;5004591;28;20115;-73
2022/04/15 10:21:32;;;;;;;16.20;9.85;;;10.90;99.90;;;;;;4977971;28;20048;-74
2022/04/15 10:24:01;;;;;;;15.15;9.27;;;11.00;99.90;;;;;;4995328;28;20080;-73
2022/04/15 10:26:32;;;;;;;12.73;8.32;;;11.20;99.90;;;;;;4965074;28;20211;-74
2022/04/15 10:29:03;;;;;;;15.05;8.15;;;11.20;99.90;;;;;;4980942;28;20060;-73
2022/04/15 10:31:43;;;;;;;15.55;8.07;;;11.50;99.90;;;;;;4999660;28;20175;-74
2022/04/15 10:34:10;;;;;;;13.95;7.68;;;11.60;99.90;;;;;;4983358;28;20059;-73
2022/04/15 10:36:37;;;;;;;15.10;8.50;;;11.30;99.90;;;;;;5000220;28;20176;-74
2022/04/15 10:39:03;;;;;;;11.48;7.72;;;11.50;99.90;;;;;;4975622;28;20106;-74
2022/04/15 10:41:51;;;;;;;14.85;8.45;;;11.50;99.90;;;;;;4985105;28;20088;-74
2022/04/15 10:44:31;;;;;;;12.95;7.38;;;11.90;99.90;;;;;;4989856;28;20062;-74
2022/04/15 10:47:04;;;;;;;12.48;7.10;;;11.90;99.90;;;;;;5002462;28;20124;-74
2022/04/15 10:49:30;;;;;;;11.38;7.22;;;11.90;99.90;;;;;;5001483;28;20055;-74
2022/04/15 10:52:16;;;;;;;13.18;6.65;;;11.40;99.90;;;;;;4997502;28;20045;-74
2022/04/15 10:54:45;;;;;;;11.75;7.22;;;11.60;99.90;;;;;;4992746;28;20132;-74
2022/04/15 10:57:17;;;;;;;11.75;6.90;;;12.10;99.90;;;;;;4996206;28;20100;-74
2022/04/15 11:02:50;;;;;;;14.68;6.90;;;11.70;99.90;;;;;;4976023;28;20131;-73
2022/04/15 11:05:51;;;;;;;11.38;7.00;;;11.60;99.90;;;;;;4973706;28;20114;-74
2022/04/15 11:08:22;;;;;;;10.73;7.35;;;11.70;99.90;;;;;;4975120;28;20053;-74
2022/04/15 11:11:07;;;;;;;13.90;7.85;;;12.10;99.90;;;;;;4994452;28;20473;-74
2022/04/15 11:13:39;;;;;;;13.55;7.47;;;12.30;99.90;;;;;;4998008;28;20492;-74
2022/04/15 11:16:16;;;;;;;13.68;7.03;;;12.10;99.90;;;;;;4997438;28;20041;-74
2022/04/15 11:18:50;;;;;;;12.55;6.68;;;11.90;99.90;;;;;;4988188;28;20621;-73
2022/04/15 11:21:19;;;;;;;10.40;6.45;;;11.90;99.90;;;;;;4992727;28;20089;-74
2022/04/15 11:23:53;;;;;;;12.32;7.65;;;11.60;99.90;;;;;;4975385;28;20229;-74
2022/04/15 11:26:20;;;;;;;10.68;7.00;;;11.80;99.90;;;;;;4964344;28;20290;-73
2022/04/15 11:28:48;;;;;;;12.27;7.35;;;12.10;99.90;;;;;;4981284;28;20054;-73
2022/04/15 11:31:31;;;;;;;9.43;6.28;;;12.00;99.90;;;;;;4983565;28;20134;-74
2022/04/15 11:34:04;;;;;;;13.43;7.30;;;12.20;99.90;;;;;;4980271;28;20104;-74
2022/04/15 11:36:37;;;;;;;13.55;7.00;;;12.50;99.90;;;;;;4983938;28;20054;-74
2022/04/15 11:39:05;;;;;;;14.23;7.78;;;12.60;99.90;;;;;;4965340;28;20125;-74
2022/04/15 11:41:31;;;;;;;11.77;6.75;;;12.60;99.90;;;;;;4993066;28;20042;-74
2022/04/15 11:44:02;;;;;;;18.10;7.25;;;12.60;99.90;;;;;;4977722;28;20799;-74
2022/04/15 11:46:47;;;;;;;12.70;6.93;;;12.70;99.90;;;;;;4980119;28;20057;-73
2022/04/15 11:49:17;;;;;;;19.30;7.55;;;12.40;99.90;;;;;;4997397;28;20088;-74
2022/04/15 11:51:48;;;;;;;16.02;7.97;;;12.60;99.90;;;;;;4999585;28;20037;-74
2022/04/15 11:54:14;;;;;;;18.63;7.22;;;12.70;99.90;;;;;;4994274;28;20837;-74
2022/04/15 11:56:42;;;;;;;11.15;6.40;;;12.90;99.90;;;;;;5002633;28;20037;-74
2022/04/15 11:59:10;;;;;;;12.70;6.82;;;12.70;99.90;;;;;;4992171;28;20044;-74
2022/04/15 12:01:36;;;;;;;11.63;7.07;;;12.60;99.90;;;;;;4977916;28;20218;-74
2022/04/15 12:04:05;;;;;;;11.30;7.03;;;12.60;99.90;;;;;;4974714;28;20057;-74
2022/04/15 12:06:32;;;;;;;13.20;7.32;;;12.50;99.90;;;;;;4994280;28;20041;-74
2022/04/15 12:08:58;;;;;;;11.75;6.90;;;12.10;99.90;;;;;;4996867;28;20138;-74
2022/04/15 12:11:25;;;;;;;11.10;6.63;;;12.10;99.90;;;;;;4998054;28;21054;-74
2022/04/15 12:13:56;;;;;;;11.13;6.63;;;12.20;99.90;;;;;;4988863;28;20045;-74
2022/04/15 12:16:23;;;;;;;11.30;6.90;;;12.30;99.90;;;;;;4983204;28;20053;-74
2022/04/15 12:18:51;;;;;;;11.27;7.05;;;12.30;99.90;;;;;;4995191;28;20049;-74
2022/04/15 12:21:17;;;;;;;11.38;6.32;;;12.30;99.90;;;;;;4975580;28;20067;-74
2022/04/15 12:24:18;;;;;;;11.07;6.57;;;12.20;99.90;;;;;;4978282;28;20089;-74
2022/04/15 12:26:50;;;;;;;11.95;6.38;;;12.00;99.90;;;;;;4911398;29;20975;-74
2022/04/15 12:32:36;;;;;;;10.82;6.88;;;12.40;99.90;;;;;;4996025;28;20378;-74
2022/04/15 12:35:02;;;;;;;10.65;6.40;;;12.40;99.90;;;;;;4950982;28;20500;-74
2022/04/15 12:37:43;;;;;;;10.02;6.82;;;12.30;99.90;;;;;;4993781;28;20082;-74
2022/04/15 12:40:12;;;;;;;11.70;6.60;;;12.40;99.90;;;;;;4974798;28;20111;-74
2022/04/15 12:42:40;;;;;;;11.00;6.68;;;12.60;99.90;;;;;;4975763;28;20060;-74
2022/04/15 12:45:19;;;;;;;10.45;5.45;;;12.50;99.90;;;;;;4965963;28;20739;-74
2022/04/15 12:48:01;;;;;;;11.65;6.22;;;12.30;99.90;;;;;;4986150;28;20519;-74
2022/04/15 12:50:33;;;;;;;11.13;6.10;;;12.30;99.90;;;;;;4990570;28;20320;-74